createdAt,value
2018-11-05T00:02:10.017Z,8.40
2018-11-05T00:04:39.376Z,8.40
2018-11-05T00:07:08.184Z,8.40
2018-11-05T00:09:37.159Z,8.40
2018-11-05T00:12:06.838Z,8.40
2018-11-05T00:14:35.572Z,8.40
2018-11-05T00:17:04.341Z,8.40
2018-11-05T00:19:33.210Z,8.30
2018-11-05T00:22:02.417Z,8.30
2018-11-05T00:24:31.418Z,8.30
2018-11-05T00:27:00.349Z,8.20
2018-11-05T00:29:29.415Z,8.20
2018-11-05T00:31:58.099Z,8.10
2018-11-05T00:34:27.022Z,8.10
2018-11-05T00:36:55.881Z,8.10
2018-11-05T00:39:24.862Z,8.20
2018-11-05T00:41:54.034Z,8.20
2018-11-05T00:44:22.870Z,8.20
2018-11-05T00:46:52.256Z,8.20
2018-11-05T00:49:21.133Z,8.20
2018-11-05T00:51:50.051Z,8.20
2018-11-05T00:54:18.797Z,8.20
2018-11-05T00:56:47.609Z,8.20
2018-11-05T00:59:17.471Z,8.10
2018-11-05T01:01:48.075Z,8.20
2018-11-05T01:04:17.194Z,8.10
2018-11-05T01:06:47.268Z,8.10
2018-11-05T01:09:16.971Z,8.10
2018-11-05T01:11:46.194Z,8.10
2018-11-05T01:14:14.977Z,8.10
2018-11-05T01:16:43.834Z,8.10
2018-11-05T01:19:12.659Z,8.10
2018-11-05T01:21:41.468Z,8.10
2018-11-05T01:24:10.327Z,8.10
2018-11-05T01:26:39.329Z,8.10
2018-11-05T01:29:08.355Z,8.00
2018-11-05T01:31:37.279Z,8.10
2018-11-05T01:34:06.097Z,8.10
2018-11-05T01:36:34.973Z,8.10
2018-11-05T01:39:04.198Z,8.00
2018-11-05T01:41:33.188Z,8.00
2018-11-05T01:44:01.868Z,7.90
2018-11-05T01:46:30.571Z,8.00
2018-11-05T01:48:59.346Z,8.00
2018-11-05T01:51:28.054Z,8.00
2018-11-05T01:53:57.031Z,8.00
2018-11-05T01:56:25.757Z,8.00
2018-11-05T01:58:54.466Z,8.00
2018-11-05T02:01:23.320Z,8.00
2018-11-05T02:03:52.083Z,8.00
2018-11-05T02:06:20.771Z,7.90
2018-11-05T02:08:49.729Z,7.90
2018-11-05T02:11:18.362Z,7.90
2018-11-05T02:13:47.151Z,7.90
2018-11-05T02:16:15.820Z,7.90
2018-11-05T02:18:44.501Z,7.90
2018-11-05T02:21:13.252Z,7.90
2018-11-05T02:23:42.040Z,7.90
2018-11-05T02:26:11.132Z,7.90
2018-11-05T02:31:23.969Z,7.90
2018-11-05T02:33:53.157Z,7.80
2018-11-05T02:36:21.923Z,7.80
2018-11-05T02:38:51.951Z,7.90
2018-11-05T02:41:21.595Z,7.90
2018-11-05T02:43:50.339Z,7.90
2018-11-05T02:46:19.200Z,7.90
2018-11-05T02:48:47.980Z,7.80
2018-11-05T02:51:16.756Z,7.80
2018-11-05T02:53:45.575Z,7.80
2018-11-05T02:56:14.390Z,7.80
2018-11-05T02:58:43.115Z,7.80
2018-11-05T03:01:12.312Z,7.70
2018-11-05T03:03:41.156Z,7.70
2018-11-05T03:06:09.859Z,7.70
2018-11-05T03:08:39.228Z,7.70
2018-11-05T03:11:08.097Z,7.80
2018-11-05T03:13:38.376Z,7.80
2018-11-05T03:16:07.443Z,7.80
2018-11-05T03:18:36.098Z,7.70
2018-11-05T03:21:04.775Z,7.70
2018-11-05T03:23:33.403Z,7.70
2018-11-05T03:26:02.627Z,7.60
2018-11-05T03:28:31.319Z,7.60
2018-11-05T03:31:00.241Z,7.60
2018-11-05T03:33:29.152Z,7.60
2018-11-05T03:35:59.587Z,7.60
2018-11-05T03:38:28.543Z,7.60
2018-11-05T03:40:57.845Z,7.60
2018-11-05T03:43:26.949Z,7.50
2018-11-05T03:45:56.381Z,7.50
2018-11-05T03:48:25.207Z,7.50
2018-11-05T03:50:54.177Z,7.50
2018-11-05T03:53:22.924Z,7.50
2018-11-05T03:55:52.360Z,7.50
2018-11-05T03:58:21.013Z,7.50
2018-11-05T04:00:49.816Z,7.50
2018-11-05T04:03:18.723Z,7.60
2018-11-05T04:05:47.503Z,7.50
2018-11-05T04:08:16.225Z,7.50
2018-11-05T04:10:45.039Z,7.50
2018-11-05T04:13:14.025Z,7.50
2018-11-05T04:15:42.980Z,7.50
2018-11-05T04:18:11.736Z,7.50
2018-11-05T04:20:40.563Z,7.50
2018-11-05T04:23:09.287Z,7.50
2018-11-05T04:25:38.027Z,7.50
2018-11-05T04:28:07.014Z,7.50
2018-11-05T04:30:35.772Z,7.50
2018-11-05T04:33:04.503Z,7.60
2018-11-05T04:35:33.130Z,7.60
2018-11-05T04:38:02.113Z,7.50
2018-11-05T04:40:30.856Z,7.60
2018-11-05T04:42:59.506Z,7.60
2018-11-05T04:45:28.284Z,7.60
2018-11-05T04:47:57.021Z,7.60
2018-11-05T04:50:25.678Z,7.60
2018-11-05T04:52:54.371Z,7.40
2018-11-05T04:55:23.096Z,7.50
2018-11-05T04:57:51.802Z,7.50
2018-11-05T05:00:23.698Z,7.50
2018-11-05T05:02:52.450Z,7.50
2018-11-05T05:05:21.408Z,7.40
2018-11-05T05:07:50.113Z,7.40
2018-11-05T05:10:18.850Z,7.30
2018-11-05T05:12:47.655Z,7.40
2018-11-05T05:15:16.708Z,7.40
2018-11-05T05:17:45.976Z,7.30
2018-11-05T05:20:16.647Z,7.40
2018-11-05T05:22:45.693Z,7.30
2018-11-05T05:25:14.730Z,7.30
2018-11-05T05:27:43.724Z,7.30
2018-11-05T05:30:18.245Z,7.30
2018-11-05T05:32:48.040Z,7.30
2018-11-05T05:35:17.486Z,7.30
2018-11-05T05:37:46.376Z,7.30
2018-11-05T05:40:15.191Z,7.30
2018-11-05T05:42:44.105Z,7.30
2018-11-05T05:45:13.864Z,7.30
2018-11-05T05:47:43.694Z,7.30
2018-11-05T05:50:15.790Z,7.30
2018-11-05T05:52:45.583Z,7.40
2018-11-05T05:55:14.608Z,7.50
2018-11-05T05:57:44.736Z,7.60
2018-11-05T06:00:16.195Z,7.60
2018-11-05T06:02:44.938Z,7.70
2018-11-05T06:05:14.583Z,7.70
2018-11-05T06:07:43.944Z,7.80
2018-11-05T06:10:14.203Z,7.90
2018-11-05T06:12:42.857Z,7.90
2018-11-05T06:15:13.425Z,7.90
2018-11-05T06:17:42.399Z,8.00
2018-11-05T06:20:14.318Z,8.10
2018-11-05T06:22:46.896Z,8.10
2018-11-05T06:25:15.872Z,8.20
2018-11-05T06:27:44.641Z,8.20
2018-11-05T06:30:17.479Z,8.30
2018-11-05T06:32:48.803Z,8.40
2018-11-05T06:35:18.350Z,8.40
2018-11-05T06:37:47.100Z,8.50
2018-11-05T06:40:17.667Z,8.50
2018-11-05T06:42:47.013Z,8.60
2018-11-05T06:45:17.077Z,8.70
2018-11-05T06:47:46.434Z,8.80
2018-11-05T06:50:18.139Z,8.80
2018-11-05T06:52:46.948Z,8.80
2018-11-05T06:55:16.790Z,8.90
2018-11-05T06:57:45.823Z,9.00
2018-11-05T07:00:16.444Z,9.00
2018-11-05T07:02:45.893Z,9.00
2018-11-05T07:05:15.282Z,9.20
2018-11-05T07:07:44.029Z,9.20
2018-11-05T07:10:14.526Z,9.30
2018-11-05T07:12:44.580Z,9.30
2018-11-05T07:15:14.582Z,9.40
2018-11-05T07:17:45.132Z,9.40
2018-11-05T07:20:15.244Z,9.50
2018-11-05T07:22:44.615Z,9.50
2018-11-05T07:25:15.217Z,9.50
2018-11-05T07:27:44.513Z,9.60
2018-11-05T07:30:17.605Z,9.60
2018-11-05T07:32:47.099Z,9.70
2018-11-05T07:35:16.912Z,9.80
2018-11-05T07:37:46.155Z,9.90
2018-11-05T07:40:17.644Z,9.90
2018-11-05T07:42:46.470Z,9.90
2018-11-05T07:45:22.711Z,9.90
2018-11-05T07:47:51.715Z,10.00
2018-11-05T07:50:22.362Z,10.20
2018-11-05T07:52:52.165Z,10.40
2018-11-05T07:55:21.394Z,10.40
2018-11-05T07:57:51.288Z,10.50
2018-11-05T08:00:25.552Z,10.50
2018-11-05T08:02:56.776Z,10.40
2018-11-05T08:05:25.771Z,10.40
2018-11-05T08:07:55.031Z,10.30
2018-11-05T08:10:25.869Z,10.50
2018-11-05T08:12:54.751Z,10.50
2018-11-05T08:15:24.973Z,10.50
2018-11-05T08:17:54.285Z,10.60
2018-11-05T08:20:23.405Z,10.70
2018-11-05T08:22:53.387Z,10.70
2018-11-05T08:25:22.341Z,10.70
2018-11-05T08:27:51.547Z,10.70
2018-11-05T08:30:22.516Z,10.70
2018-11-05T08:32:51.701Z,10.80
2018-11-05T08:35:22.277Z,10.90
2018-11-05T08:37:51.645Z,10.90
2018-11-05T08:40:23.149Z,11.00
2018-11-05T08:42:53.929Z,11.10
2018-11-05T08:45:24.732Z,11.20
2018-11-05T08:47:54.269Z,11.40
2018-11-05T08:50:24.738Z,11.50
2018-11-05T08:52:53.661Z,11.60
2018-11-05T08:55:23.982Z,11.60
2018-11-05T08:57:53.632Z,11.60
2018-11-05T09:00:27.858Z,11.60
2018-11-05T09:02:57.241Z,11.70
2018-11-05T09:05:26.284Z,11.70
2018-11-05T09:07:55.865Z,11.80
2018-11-05T09:10:25.813Z,11.70
2018-11-05T09:12:55.308Z,11.80
2018-11-05T09:15:24.944Z,11.90
2018-11-05T09:17:53.888Z,12.00
2018-11-05T09:20:22.649Z,12.00
2018-11-05T09:22:52.043Z,12.00
2018-11-05T09:25:20.818Z,12.00
2018-11-05T09:27:49.646Z,12.00
2018-11-05T09:30:22.813Z,12.00
2018-11-05T09:32:51.606Z,12.00
2018-11-05T09:35:20.932Z,12.00
2018-11-05T09:37:49.735Z,12.00
2018-11-05T09:40:26.431Z,11.90
2018-11-05T09:42:55.260Z,11.90
2018-11-05T09:45:26.642Z,11.90
2018-11-05T09:47:55.400Z,11.90
2018-11-05T09:50:24.068Z,11.90
2018-11-05T09:52:52.756Z,11.80
2018-11-05T09:55:21.537Z,11.80
2018-11-05T09:57:50.474Z,11.80
2018-11-05T10:00:21.665Z,11.80
2018-11-05T10:02:55.617Z,11.80
2018-11-05T10:05:26.481Z,11.90
2018-11-05T10:07:55.241Z,11.90
2018-11-05T10:10:24.133Z,11.90
2018-11-05T10:12:52.823Z,11.90
2018-11-05T10:15:21.843Z,12.10
2018-11-05T10:17:50.494Z,12.10
2018-11-05T10:20:22.545Z,12.30
2018-11-05T10:22:51.337Z,12.40
2018-11-05T10:25:20.543Z,12.50
2018-11-05T10:27:50.142Z,12.30
2018-11-05T10:30:21.974Z,12.30
2018-11-05T10:32:50.862Z,12.30
2018-11-05T10:35:20.818Z,12.40
2018-11-05T10:37:49.709Z,12.50
2018-11-05T10:40:20.080Z,12.50
2018-11-05T10:42:49.396Z,12.40
2018-11-05T10:45:19.134Z,12.30
2018-11-05T10:47:48.112Z,12.30
2018-11-05T10:50:17.875Z,12.40
2018-11-05T10:52:50.095Z,12.40
2018-11-05T10:55:18.831Z,12.50
2018-11-05T10:57:47.864Z,12.50
2018-11-05T11:00:26.956Z,12.50
2018-11-05T11:03:01.237Z,12.70
2018-11-05T11:05:31.438Z,12.80
2018-11-05T11:08:00.967Z,12.90
2018-11-05T11:10:33.137Z,13.00
2018-11-05T11:13:01.930Z,13.10
2018-11-05T11:15:30.817Z,13.20
2018-11-05T11:17:59.548Z,13.20
2018-11-05T11:20:28.256Z,13.20
2018-11-05T11:22:57.130Z,13.20
2018-11-05T11:25:25.866Z,13.20
2018-11-05T11:27:54.925Z,13.30
2018-11-05T11:30:23.552Z,13.30
2018-11-05T11:32:52.958Z,13.40
2018-11-05T11:35:21.672Z,13.60
2018-11-05T11:37:50.812Z,13.70
2018-11-05T11:40:20.845Z,13.70
2018-11-05T11:42:50.016Z,13.70
2018-11-05T11:45:19.972Z,13.80
2018-11-05T11:47:48.747Z,13.70
2018-11-05T11:50:18.193Z,13.80
2018-11-05T11:52:47.469Z,13.80
2018-11-05T11:55:17.744Z,13.80
2018-11-05T11:57:46.758Z,13.90
2018-11-05T12:00:18.822Z,14.00
2018-11-05T12:02:48.669Z,13.90
2018-11-05T12:05:17.638Z,13.90
2018-11-05T12:07:46.319Z,13.80
2018-11-05T12:10:18.695Z,13.70
2018-11-05T12:12:47.547Z,13.80
2018-11-05T12:15:17.367Z,13.80
2018-11-05T12:17:47.108Z,13.60
2018-11-05T12:20:17.247Z,13.70
2018-11-05T12:22:46.944Z,13.80
2018-11-05T12:25:16.201Z,13.80
2018-11-05T12:27:44.993Z,13.80
2018-11-05T12:30:16.431Z,13.80
2018-11-05T12:32:46.323Z,13.70
2018-11-05T12:35:15.907Z,13.70
2018-11-05T12:37:45.893Z,13.80
2018-11-05T12:40:16.353Z,13.80
2018-11-05T12:42:46.476Z,13.90
2018-11-05T12:45:15.730Z,13.80
2018-11-05T12:47:44.450Z,14.00
2018-11-05T12:50:16.381Z,14.10
2018-11-05T12:52:46.634Z,14.10
2018-11-05T12:55:15.386Z,14.10
2018-11-05T12:57:44.311Z,14.00
2018-11-05T13:00:15.144Z,13.90
2018-11-05T13:02:44.102Z,13.90
2018-11-05T13:05:13.737Z,14.00
2018-11-05T13:07:44.056Z,13.90
2018-11-05T13:10:14.073Z,14.00
2018-11-05T13:12:42.989Z,13.90
2018-11-05T13:15:13.722Z,14.00
2018-11-05T13:17:42.715Z,14.00
2018-11-05T13:20:17.087Z,14.00
2018-11-05T13:22:45.861Z,14.10
2018-11-05T13:25:15.128Z,14.20
2018-11-05T13:27:45.209Z,14.20
2018-11-05T13:30:15.278Z,14.00
2018-11-05T13:32:44.898Z,14.00
2018-11-05T13:35:15.440Z,14.00
2018-11-05T13:37:44.687Z,13.90
2018-11-05T13:40:16.501Z,13.70
2018-11-05T13:42:47.083Z,13.70
2018-11-05T13:45:16.488Z,13.60
2018-11-05T13:47:45.985Z,13.70
2018-11-05T13:50:14.764Z,13.70
2018-11-05T13:52:44.819Z,13.80
2018-11-05T13:55:15.637Z,13.70
2018-11-05T13:57:46.984Z,13.70
2018-11-05T14:00:19.342Z,13.70
2018-11-05T14:02:48.275Z,13.70
2018-11-05T14:05:17.421Z,13.70
2018-11-05T14:07:46.931Z,13.70
2018-11-05T14:10:22.538Z,13.80
2018-11-05T14:12:51.885Z,13.70
2018-11-05T14:15:20.876Z,13.70
2018-11-05T14:17:49.752Z,13.70
2018-11-05T14:20:19.880Z,13.60
2018-11-05T14:22:49.262Z,13.40
2018-11-05T14:25:22.275Z,13.50
2018-11-05T14:27:52.489Z,13.40
2018-11-05T14:30:21.068Z,13.50
2018-11-05T14:32:51.413Z,13.40
2018-11-05T14:35:20.475Z,13.50
2018-11-05T14:37:49.723Z,13.50
2018-11-05T14:40:19.122Z,13.50
2018-11-05T14:42:48.270Z,13.40
2018-11-05T14:45:18.650Z,13.50
2018-11-05T14:47:48.026Z,13.40
2018-11-05T14:50:18.371Z,13.40
2018-11-05T14:52:47.158Z,13.40
2018-11-05T14:55:17.652Z,13.40
2018-11-05T14:57:47.474Z,13.30
2018-11-05T15:00:19.624Z,13.30
2018-11-05T15:02:49.296Z,13.30
2018-11-05T15:05:18.143Z,13.20
2018-11-05T15:07:47.585Z,13.10
2018-11-05T15:10:17.676Z,13.10
2018-11-05T15:12:46.581Z,13.10
2018-11-05T15:15:15.907Z,13.10
2018-11-05T15:17:45.190Z,13.00
2018-11-05T15:20:16.304Z,13.00
2018-11-05T15:22:44.832Z,12.90
2018-11-05T15:25:13.985Z,12.80
2018-11-05T15:27:42.855Z,12.80
2018-11-05T15:30:14.328Z,12.90
2018-11-05T15:32:43.997Z,12.80
2018-11-05T15:35:12.707Z,12.80
2018-11-05T15:37:42.525Z,12.80
2018-11-05T15:40:16.668Z,12.80
2018-11-05T15:42:45.520Z,12.60
2018-11-05T15:45:16.126Z,12.60
2018-11-05T15:47:45.019Z,12.60
2018-11-05T15:50:16.344Z,12.60
2018-11-05T15:52:46.047Z,12.60
2018-11-05T15:55:14.814Z,12.50
2018-11-05T15:57:44.045Z,12.30
2018-11-05T16:00:23.592Z,12.30
2018-11-05T16:02:54.154Z,12.30
2018-11-05T16:05:22.819Z,12.30
2018-11-05T16:07:51.489Z,12.30
2018-11-05T16:10:20.186Z,12.20
2018-11-05T16:12:49.377Z,12.20
2018-11-05T16:15:18.075Z,12.10
2018-11-05T16:17:47.021Z,12.10
2018-11-05T16:20:17.191Z,12.10
2018-11-05T16:22:46.885Z,12.00
2018-11-05T16:25:16.042Z,12.00
2018-11-05T16:27:45.583Z,12.00
2018-11-05T16:30:16.310Z,12.00
2018-11-05T16:32:45.806Z,12.00
2018-11-05T16:35:14.830Z,12.00
2018-11-05T16:37:44.025Z,12.00
2018-11-05T16:40:14.790Z,12.00
2018-11-05T16:42:44.288Z,12.10
2018-11-05T16:45:13.047Z,12.20
2018-11-05T16:47:42.249Z,12.10
2018-11-05T16:50:20.339Z,12.10
2018-11-05T16:52:49.270Z,12.20
2018-11-05T16:55:18.349Z,12.20
2018-11-05T16:57:47.313Z,12.10
2018-11-05T17:00:16.398Z,12.10
2018-11-05T17:02:45.809Z,12.00
2018-11-05T17:05:14.495Z,12.00
2018-11-05T17:07:43.391Z,12.00
2018-11-05T17:10:13.269Z,12.00
2018-11-05T17:12:42.729Z,11.80
2018-11-05T17:15:13.121Z,11.80
2018-11-05T17:17:42.363Z,11.90
2018-11-05T17:20:14.639Z,12.00
2018-11-05T17:22:44.246Z,12.00
2018-11-05T17:25:13.741Z,11.90
2018-11-05T17:27:43.071Z,11.90
2018-11-05T17:30:14.880Z,12.00
2018-11-05T17:32:44.395Z,12.00
2018-11-05T17:35:13.690Z,12.00
2018-11-05T17:37:42.654Z,11.90
2018-11-05T17:40:13.315Z,11.90
2018-11-05T17:42:42.617Z,11.90
2018-11-05T17:45:13.407Z,11.80
2018-11-05T17:47:42.749Z,11.80
2018-11-05T17:50:14.099Z,11.80
2018-11-05T17:52:43.272Z,11.80
2018-11-05T17:55:12.583Z,11.90
2018-11-05T17:57:42.482Z,11.90
2018-11-05T18:00:14.816Z,11.80
2018-11-05T18:02:43.721Z,11.80
2018-11-05T18:05:12.625Z,11.70
2018-11-05T18:07:42.284Z,11.70
2018-11-05T18:10:11.042Z,11.60
2018-11-05T18:12:40.359Z,11.60
2018-11-05T18:15:11.030Z,11.50
2018-11-05T18:17:40.914Z,11.50
2018-11-05T18:20:11.648Z,11.40
2018-11-05T18:22:40.510Z,11.30
2018-11-05T18:25:12.337Z,11.20
2018-11-05T18:27:41.403Z,11.20
2018-11-05T18:30:10.810Z,11.10
2018-11-05T18:32:39.785Z,11.10
2018-11-05T18:35:11.422Z,11.10
2018-11-05T18:37:40.568Z,11.10
2018-11-05T18:40:13.193Z,11.00
2018-11-05T18:42:42.510Z,11.00
2018-11-05T18:45:11.486Z,10.90
2018-11-05T18:47:40.568Z,10.90
2018-11-05T18:50:13.184Z,10.80
2018-11-05T18:52:42.432Z,10.90
2018-11-05T18:55:13.770Z,10.80
2018-11-05T18:57:42.724Z,10.80
2018-11-05T19:00:17.920Z,10.80
2018-11-05T19:02:47.402Z,10.80
2018-11-05T19:05:16.476Z,10.80
2018-11-05T19:07:45.267Z,10.80
2018-11-05T19:10:14.202Z,10.80
2018-11-05T19:12:42.986Z,10.70
2018-11-05T19:15:13.506Z,10.60
2018-11-05T19:17:43.340Z,10.60
2018-11-05T19:20:13.048Z,10.50
2018-11-05T19:22:42.588Z,10.60
2018-11-05T19:25:13.932Z,10.50
2018-11-05T19:27:43.485Z,10.50
2018-11-05T19:30:25.254Z,10.50
2018-11-05T19:32:54.062Z,10.50
2018-11-05T19:35:23.726Z,10.60
2018-11-05T19:37:52.407Z,10.50
2018-11-05T19:40:21.553Z,10.50
2018-11-05T19:42:51.086Z,10.50
2018-11-05T19:45:21.327Z,10.50
2018-11-05T19:47:50.115Z,10.50
2018-11-05T19:50:20.233Z,10.60
2018-11-05T19:52:50.182Z,10.50
2018-11-05T19:55:19.774Z,10.50
2018-11-05T19:57:49.172Z,10.60
2018-11-05T20:00:20.740Z,10.60
2018-11-05T20:02:50.341Z,10.60
2018-11-05T20:05:19.652Z,10.60
2018-11-05T20:07:51.818Z,10.50
2018-11-05T20:10:20.684Z,10.50
2018-11-05T20:12:49.600Z,10.60
2018-11-05T20:15:18.792Z,10.60
2018-11-05T20:17:48.450Z,10.50
2018-11-05T20:20:19.789Z,10.40
2018-11-05T20:22:49.022Z,10.40
2018-11-05T20:25:18.044Z,10.40
2018-11-05T20:27:47.083Z,10.40
2018-11-05T20:30:18.104Z,10.30
2018-11-05T20:32:48.634Z,10.30
2018-11-05T20:35:18.098Z,10.30
2018-11-05T20:37:47.099Z,10.30
2018-11-05T20:40:18.427Z,10.20
2018-11-05T20:42:48.612Z,10.20
2018-11-05T20:45:18.951Z,10.20
2018-11-05T20:47:47.965Z,10.20
2018-11-05T20:50:17.387Z,10.20
2018-11-05T20:52:46.069Z,10.20
2018-11-05T20:55:16.508Z,10.10
2018-11-05T20:57:45.599Z,10.00
2018-11-05T21:00:17.207Z,10.10
2018-11-05T21:02:46.067Z,10.00
2018-11-05T21:05:14.981Z,10.10
2018-11-05T21:07:44.379Z,10.10
2018-11-05T21:10:14.225Z,10.00
2018-11-05T21:12:43.497Z,10.00
2018-11-05T21:15:15.527Z,10.00
2018-11-05T21:17:45.146Z,10.10
2018-11-05T21:20:14.399Z,10.10
2018-11-05T21:22:43.442Z,10.10
2018-11-05T21:25:11.939Z,10.20
2018-11-05T21:27:41.837Z,10.20
2018-11-05T21:30:12.791Z,10.30
2018-11-05T21:32:42.055Z,10.30
2018-11-05T21:35:13.154Z,10.40
2018-11-05T21:37:42.138Z,10.30
2018-11-05T21:40:12.150Z,10.20
2018-11-05T21:42:40.939Z,10.20
2018-11-05T21:45:11.424Z,10.30
2018-11-05T21:47:40.494Z,10.20
2018-11-05T21:50:10.955Z,10.20
2018-11-05T21:52:40.670Z,10.10
2018-11-05T21:55:09.598Z,10.20
2018-11-05T21:57:40.118Z,10.20
2018-11-05T22:00:12.036Z,10.20
2018-11-05T22:02:46.181Z,10.20
2018-11-05T22:05:15.476Z,10.10
2018-11-05T22:07:44.419Z,10.20
2018-11-05T22:10:13.724Z,10.20
2018-11-05T22:12:42.761Z,10.10
2018-11-05T22:15:11.781Z,10.10
2018-11-05T22:17:40.448Z,10.00
2018-11-05T22:20:13.081Z,10.00
2018-11-05T22:22:41.885Z,10.00
2018-11-05T22:25:11.184Z,10.00
2018-11-05T22:27:40.347Z,10.00
2018-11-05T22:30:10.523Z,10.00
2018-11-05T22:32:39.312Z,10.00
2018-11-05T22:35:08.680Z,9.90
2018-11-05T22:37:38.257Z,9.70
2018-11-05T22:40:10.006Z,9.70
2018-11-05T22:42:38.709Z,9.80
2018-11-05T22:45:07.925Z,9.80
2018-11-05T22:47:36.752Z,9.70
2018-11-05T22:50:05.926Z,9.70
2018-11-05T22:52:34.818Z,9.70
2018-11-05T22:55:03.561Z,9.70
2018-11-05T22:57:32.270Z,9.70
2018-11-05T23:00:01.175Z,9.60
2018-11-05T23:02:29.880Z,9.60
2018-11-05T23:04:58.570Z,9.70
2018-11-05T23:07:27.250Z,9.70
2018-11-05T23:09:55.928Z,9.70
2018-11-05T23:12:24.591Z,9.80
2018-11-05T23:14:53.355Z,9.70
2018-11-05T23:17:22.100Z,9.80
2018-11-05T23:19:50.802Z,9.80
2018-11-05T23:22:19.507Z,9.80
2018-11-05T23:24:48.247Z,9.70
2018-11-05T23:27:17.400Z,9.60
2018-11-05T23:29:46.379Z,9.60
2018-11-05T23:32:15.775Z,9.50
2018-11-05T23:34:46.453Z,9.50
2018-11-05T23:37:15.318Z,9.40
2018-11-05T23:39:44.210Z,9.30
2018-11-05T23:42:13.001Z,9.30
2018-11-05T23:44:42.173Z,9.30
2018-11-05T23:47:11.061Z,9.20
2018-11-05T23:49:39.888Z,9.20
2018-11-05T23:52:08.721Z,9.20
2018-11-05T23:54:37.340Z,9.30
2018-11-05T23:57:06.395Z,9.20
2018-11-05T23:59:35.306Z,9.20
